Thursday, November 23, 2017, 7:17 PM EST
Back to Local

KMDT, Harrisburg International Airport

Location: Middletown, PA, United States Lat: 40.2
Local Time: 7:17 PM EST ( 0:17 GMT) Lon: -76.767
Time Zone: US/Eastern Elev: 308 ft

Show me the last for .
Show Coded

Time T Td Feel RH Dir Speed Gust Alt SLP Vis Weather Sky Remarks
2017-11-23 18:56 34 25 31 69 120° 3 - 30.03 30.04 10 SCT250 6-hr Min Temp (7pm): 30.9°F
6-hr Max Temp (7pm): 42.1°F
2017-11-23 17:56 37 28 - 69 - Calm - 30.04 30.05 10 BKN250 None
2017-11-23 16:56 39 28 - 64 - Calm - 30.04 30.05 10 BKN250 None
2017-11-23 15:56 41 25 - 52 - Calm - 30.04 30.05 10 BKN250 None
2017-11-23 14:56 42 23 38 46 300° 6 - 30.04 30.05 10 BKN250 None
2017-11-23 13:56 41 23 37 48 280° 6 - 30.06 30.07 10 CLR None
2017-11-23 12:56 41 22 35 46 340° 9 - 30.08 30.09 10 SCT150 6-hr Min Temp (1pm): 28.0°F
6-hr Max Temp (1pm): 41.0°F
2017-11-23 11:56 39 22 33 49 320° 8 - 30.11 30.12 10 SCT150 None
2017-11-23 10:56 39 22 32 49 290° 12 - 30.14 30.15 10 SCT120 None
2017-11-23 09:56 36 20 31 51 300° 6 - 30.16 30.16 10 SCT120 None
2017-11-23 08:56 35 22 - 58 - Calm - 30.16 30.17 10 CLR None
2017-11-23 07:56 30 23 26 74 360° 3 - 30.17 30.18 10 SCT120 None
2017-11-23 06:56 28 20 - 71 - Calm - 30.16 30.17 10 FEW100 6-hr Min Temp (7am): 27.0°F
6-hr Max Temp (7am): 33.1°F
2017-11-23 05:56 28 19 24 68 310° 3 - 30.14 30.15 10 CLR None
2017-11-23 04:56 31 19 - 60 - Calm - 30.13 30.14 10 FEW040 None
2017-11-23 03:56 31 19 23 60 330° 8 - 30.13 30.14 10 FEW040 None
2017-11-23 02:56 32 20 24 60 340° 9 - 30.14 30.14 10 FEW040 None
2017-11-23 01:56 33 20 25 58 330° 10 - 30.15 30.16 10 FEW040 None
2017-11-23 00:56 33 20 29 58 330° 5 - 30.16 30.16 10 FEW041 6-hr Min Temp (1am): 33.1°F
6-hr Max Temp (1am): 39.9°F
2017-11-22 23:56 34 20 26 55 320° 10 - 30.16 30.17 10 FEW043 24-hr Min Temp (12am): 34.0°F
24-hr Max Temp (12am): 52.0°F
2017-11-22 22:56 35 21 27 56 330° 10 - 30.16 30.16 10 FEW043 None
2017-11-22 21:56 37 21 29 51 320° 13 - 30.16 30.17 10 BKN044 None
2017-11-22 20:56 37 22 27 53 320° 20 - 30.14 30.15 10 SCT044 None
2017-11-22 19:56 38 22 27 52 320° 16 23 30.14 30.15 10 BKN045 None

Support USWX by starting your Amazon purchase here.